This is the latest recevied weather packets stored in our database for station/object AD8PA-13. If no packets are shown the sender has not sent any weather packets the latest 10 day(s).
| Time | Temp. | Humidity | Pressure | Rain* | Wind** | Luminosity | Snow |
|---|---|---|---|---|---|---|---|
| 1777136341 | 10° C | 88% | 1014.5 hPa | 0 mm | - | - | - |
| 1777135436 | 9.44° C | 88% | 1014.5 hPa | 0 mm | - | - | - |
| 1777134531 | 10.56° C | 86% | 1014.2 hPa | 0 mm | - | - | - |
| 1777133627 | 10° C | 87% | 1014 hPa | 0 mm | - | - | - |
| 1777132722 | 10° C | 86% | 1014 hPa | 0 mm | - | - | - |
| 1777131823 | 9.44° C | 90% | 1014 hPa | 0 mm | - | - | - |
| 1777130921 | 10.56° C | 87% | 1013.7 hPa | 0 mm | - | - | - |
| 1777130016 | 10.56° C | 88% | 1013.3 hPa | 0 mm | - | - | - |
| 1777129112 | 10.56° C | 90% | 1013.1 hPa | 0 mm | - | - | - |
| 1777128208 | 10.56° C | 92% | 1013 hPa | 0 mm | - | - | - |
| 1777127305 | 10.56° C | 93% | 1013.1 hPa | 0 mm | - | - | - |
| 1777126405 | 11.11° C | 93% | 1012.9 hPa | 0 mm | - | - | - |
| 1777125505 | 11.11° C | 92% | 1012.9 hPa | 0 mm | - | - | - |
| 1777124604 | 12.22° C | 92% | 1012.6 hPa | 0 mm | - | - | - |
| 1777123705 | 12.22° C | 95% | 1012.1 hPa | 0 mm | - | - | - |
| 1777122800 | 12.22° C | 95% | 1012.1 hPa | 0 mm | - | - | - |
| 1777121900 | 12.22° C | 95% | 1011.8 hPa | 0 mm | - | - | - |
| 1777120996 | 12.22° C | 94% | 1011.7 hPa | 0 mm | - | - | - |
| 1777120094 | 12.22° C | 92% | 1011.4 hPa | 0 mm | - | - | - |
| 1777119194 | 12.22° C | 93% | 1011.2 hPa | 0 mm | - | - | - |
| 1777118291 | 12.22° C | 94% | 1011.2 hPa | 0 mm | - | - | - |
| 1777117388 | 12.78° C | 94% | 1011.1 hPa | 0 mm | - | - | - |
| 1777116486 | 12.78° C | 93% | 1010.7 hPa | 0 mm | - | - | - |
| 1777115585 | 13.33° C | 93% | 1010.5 hPa | 0 mm | - | - | - |
| 1777114680 | 13.33° C | 93% | 1010.2 hPa | 0 mm | - | - | - |
* Rain latest hour (hover to see other rain measurements)
** Current wind speed in m/s (hover to see current wind gust speed)